createdAt,value
2019-04-03T00:02:15.548Z,36.18
2019-04-03T00:04:43.813Z,36.29
2019-04-03T00:07:12.099Z,36.41
2019-04-03T00:09:40.290Z,36.53
2019-04-03T00:12:10.531Z,36.67
2019-04-03T00:14:39.090Z,36.79
2019-04-03T00:17:07.431Z,36.92
2019-04-03T00:19:35.800Z,37.06
2019-04-03T00:22:03.857Z,37.20
2019-04-03T00:24:33.447Z,37.34
2019-04-03T00:27:01.613Z,37.47
2019-04-03T00:29:29.689Z,37.59
2019-04-03T00:31:57.742Z,37.75
2019-04-03T00:34:26.288Z,37.85
2019-04-03T00:36:54.356Z,37.98
2019-04-03T00:39:23.981Z,38.09
2019-04-03T00:41:52.942Z,38.21
2019-04-03T00:44:24.231Z,38.27
2019-04-03T00:46:53.814Z,38.39
2019-04-03T00:49:22.789Z,38.50
2019-04-03T00:51:51.519Z,38.61
2019-04-03T00:54:19.938Z,38.70
2019-04-03T00:56:48.009Z,38.82
2019-04-03T00:59:16.084Z,38.93
2019-04-03T01:01:44.206Z,39.04
2019-04-03T01:04:12.439Z,39.19
2019-04-03T01:06:40.472Z,39.32
2019-04-03T01:09:08.573Z,39.43
2019-04-03T01:11:36.610Z,39.57
2019-04-03T01:14:04.780Z,39.70
2019-04-03T01:16:33.572Z,39.82
2019-04-03T01:19:01.759Z,39.89
2019-04-03T01:21:30.491Z,39.97
2019-04-03T01:23:58.637Z,40.06
2019-04-03T01:26:27.075Z,40.16
2019-04-03T01:28:55.268Z,40.25
2019-04-03T01:31:23.373Z,40.34
2019-04-03T01:33:51.672Z,40.44
2019-04-03T01:36:19.806Z,40.50
2019-04-03T01:38:49.500Z,40.60
2019-04-03T01:41:18.839Z,40.68
2019-04-03T01:43:49.514Z,40.75
2019-04-03T01:46:17.640Z,40.82
2019-04-03T01:48:45.727Z,40.89
2019-04-03T01:51:13.904Z,40.96
2019-04-03T01:53:42.001Z,41.05
2019-04-03T01:56:10.116Z,41.11
2019-04-03T01:58:38.235Z,41.19
2019-04-03T02:01:07.938Z,41.31
2019-04-03T02:03:36.281Z,41.36
2019-04-03T02:06:04.375Z,41.46
2019-04-03T02:08:32.497Z,41.54
2019-04-03T02:11:02.171Z,41.59
2019-04-03T02:13:30.233Z,41.64
2019-04-03T02:15:59.919Z,41.71
2019-04-03T02:18:29.427Z,41.83
2019-04-03T02:20:58.169Z,41.95
2019-04-03T02:23:26.223Z,42.02
2019-04-03T02:25:55.638Z,42.05
2019-04-03T02:28:23.787Z,42.19
2019-04-03T02:30:52.941Z,42.33
2019-04-03T02:33:20.991Z,42.37
2019-04-03T02:35:49.076Z,42.44
2019-04-03T02:38:17.171Z,42.44
2019-04-03T02:40:45.288Z,42.50
2019-04-03T02:43:14.106Z,42.60
2019-04-03T02:45:43.236Z,42.62
2019-04-03T02:48:11.401Z,42.66
2019-04-03T02:50:39.601Z,42.73
2019-04-03T02:53:08.070Z,42.77
2019-04-03T02:55:39.136Z,42.82
2019-04-03T02:58:07.416Z,42.85
2019-04-03T03:00:36.437Z,42.92
2019-04-03T03:03:04.526Z,43.00
2019-04-03T03:05:33.505Z,43.07
2019-04-03T03:08:02.590Z,43.11
2019-04-03T03:10:32.526Z,43.17
2019-04-03T03:13:02.347Z,43.24
2019-04-03T03:15:31.257Z,43.25
2019-04-03T03:18:01.520Z,43.24
2019-04-03T03:20:31.594Z,43.28
2019-04-03T03:23:01.170Z,43.34
2019-04-03T03:25:32.149Z,43.39
2019-04-03T03:28:01.911Z,43.41
2019-04-03T03:30:42.008Z,43.47
2019-04-03T03:33:25.160Z,43.52
2019-04-03T03:35:40.427Z,43.55
2019-04-03T03:38:04.637Z,43.60
2019-04-03T03:40:34.592Z,43.64
2019-04-03T03:43:05.117Z,43.73
2019-04-03T03:45:33.708Z,43.82
2019-04-03T03:48:05.681Z,43.93
2019-04-03T03:50:36.056Z,44.01
2019-04-03T03:53:05.153Z,44.04
2019-04-03T03:55:34.855Z,44.10
2019-04-03T03:58:03.576Z,44.19
2019-04-03T04:00:32.368Z,44.23
2019-04-03T04:03:00.845Z,44.23
2019-04-03T04:05:29.417Z,44.28
2019-04-03T04:07:57.865Z,44.32
2019-04-03T04:10:28.610Z,44.34
2019-04-03T04:12:57.911Z,44.39
2019-04-03T04:15:30.475Z,44.44
2019-04-03T04:17:57.952Z,44.50
2019-04-03T04:20:27.199Z,44.53
2019-04-03T04:22:55.276Z,44.57
2019-04-03T04:25:23.726Z,44.61
2019-04-03T04:27:52.082Z,44.64
2019-04-03T04:30:20.286Z,44.65
2019-04-03T04:32:48.364Z,44.72
2019-04-03T04:35:16.414Z,44.75
2019-04-03T04:37:44.521Z,44.78
2019-04-03T04:40:12.799Z,44.82
2019-04-03T04:42:40.980Z,44.88
2019-04-03T04:45:09.785Z,44.92
2019-04-03T04:47:39.337Z,44.94
2019-04-03T04:50:07.535Z,44.97
2019-04-03T04:52:36.797Z,45.03
2019-04-03T04:55:04.836Z,45.07
2019-04-03T04:57:33.419Z,45.08
2019-04-03T05:00:03.150Z,45.10
2019-04-03T05:02:31.350Z,45.15
2019-04-03T05:04:59.646Z,45.20
2019-04-03T05:07:28.848Z,45.21
2019-04-03T05:09:58.106Z,45.27
2019-04-03T05:12:26.423Z,45.30
2019-04-03T05:14:54.550Z,45.35
2019-04-03T05:17:26.134Z,45.35
2019-04-03T05:19:54.054Z,45.40
2019-04-03T05:22:23.970Z,45.45
2019-04-03T05:24:52.413Z,45.49
2019-04-03T05:27:20.516Z,45.54
2019-04-03T05:29:48.621Z,45.56
2019-04-03T05:32:16.700Z,45.58
2019-04-03T05:34:45.090Z,45.58
2019-04-03T05:37:14.451Z,45.56
2019-04-03T05:39:42.535Z,45.54
2019-04-03T05:42:10.715Z,45.49
2019-04-03T05:44:39.466Z,45.48
2019-04-03T05:47:08.545Z,45.44
2019-04-03T05:49:36.670Z,45.43
2019-04-03T05:52:04.916Z,45.45
2019-04-03T05:54:32.950Z,45.42
2019-04-03T05:57:01.070Z,45.41
2019-04-03T05:59:29.058Z,45.43
2019-04-03T06:01:57.162Z,45.39
2019-04-03T06:04:25.351Z,45.42
2019-04-03T06:06:53.843Z,45.45
2019-04-03T06:09:23.203Z,45.45
2019-04-03T06:11:52.419Z,45.46
2019-04-03T06:14:23.184Z,45.47
2019-04-03T06:16:50.838Z,45.49
2019-04-03T06:19:18.915Z,45.56
2019-04-03T06:21:47.039Z,45.57
2019-04-03T06:24:17.796Z,45.62
2019-04-03T06:26:47.425Z,45.68
2019-04-03T06:29:16.909Z,45.68
2019-04-03T06:31:45.413Z,45.71
2019-04-03T06:34:13.393Z,45.73
2019-04-03T06:36:41.567Z,45.75
2019-04-03T06:39:09.751Z,45.78
2019-04-03T06:41:38.160Z,45.81
2019-04-03T06:44:06.225Z,45.84
2019-04-03T06:46:34.653Z,45.86
2019-04-03T06:49:02.713Z,45.89
2019-04-03T06:51:30.726Z,45.89
2019-04-03T06:53:59.910Z,45.93
2019-04-03T06:56:28.049Z,45.98
2019-04-03T06:58:56.131Z,46.00
2019-04-03T07:01:24.192Z,46.05
2019-04-03T07:03:52.390Z,46.11
2019-04-03T07:06:20.694Z,46.19
2019-04-03T07:08:48.917Z,46.20
2019-04-03T07:11:23.412Z,46.22
2019-04-03T07:13:48.428Z,46.28
2019-04-03T07:16:16.476Z,46.33
2019-04-03T07:18:44.770Z,46.40
2019-04-03T07:21:12.834Z,46.46
2019-04-03T07:23:41.150Z,46.50
2019-04-03T07:26:09.290Z,46.56
2019-04-03T07:28:38.917Z,46.59
2019-04-03T07:31:08.631Z,46.65
2019-04-03T07:33:36.787Z,46.67
2019-04-03T07:36:05.898Z,46.77
2019-04-03T07:38:35.061Z,46.80
2019-04-03T07:41:04.009Z,46.85
2019-04-03T07:43:32.137Z,46.87
2019-04-03T07:46:01.670Z,46.92
2019-04-03T07:48:33.300Z,47.00
2019-04-03T07:51:01.899Z,47.08
2019-04-03T07:53:30.127Z,47.08
2019-04-03T07:55:58.549Z,47.14
2019-04-03T07:58:26.641Z,47.17
2019-04-03T08:00:54.648Z,47.18
2019-04-03T08:03:22.672Z,47.21
2019-04-03T08:05:51.042Z,47.25
2019-04-03T08:08:19.087Z,47.33
2019-04-03T08:10:47.468Z,47.37
2019-04-03T08:13:15.519Z,47.41
2019-04-03T08:15:44.497Z,47.48
2019-04-03T08:18:13.979Z,47.54
2019-04-03T08:20:42.236Z,47.64
2019-04-03T08:23:10.258Z,47.68
2019-04-03T08:25:38.559Z,47.73
2019-04-03T08:28:06.621Z,47.80
2019-04-03T08:30:34.643Z,47.82
2019-04-03T08:33:14.881Z,47.86
2019-04-03T08:35:35.090Z,47.87
2019-04-03T08:38:02.701Z,47.89
2019-04-03T08:40:31.225Z,47.90
2019-04-03T08:43:00.379Z,47.92
2019-04-03T08:45:28.939Z,47.95
2019-04-03T08:47:57.023Z,47.95
2019-04-03T08:50:25.064Z,47.89
2019-04-03T08:52:53.119Z,47.83
2019-04-03T08:55:21.594Z,47.64
2019-04-03T08:57:52.086Z,47.52
2019-04-03T09:00:19.956Z,47.43
2019-04-03T09:02:48.238Z,47.32
2019-04-03T09:05:18.999Z,47.24
2019-04-03T09:07:46.331Z,47.18
2019-04-03T09:10:16.963Z,47.13
2019-04-03T09:12:45.338Z,47.10
2019-04-03T09:15:13.540Z,47.06
2019-04-03T09:17:41.552Z,47.03
2019-04-03T09:20:12.858Z,47.04
2019-04-03T09:22:39.811Z,47.08
2019-04-03T09:25:08.157Z,47.09
2019-04-03T09:27:36.202Z,47.09
2019-04-03T09:30:08.506Z,47.12
2019-04-03T09:32:37.540Z,47.14
2019-04-03T09:35:07.120Z,47.18
2019-04-03T09:37:38.039Z,47.16
2019-04-03T09:40:07.832Z,47.23
2019-04-03T09:42:36.269Z,47.28
2019-04-03T09:45:05.677Z,47.31
2019-04-03T09:47:34.998Z,47.33
2019-04-03T09:50:08.652Z,47.32
2019-04-03T09:52:41.741Z,47.31
2019-04-03T09:55:07.283Z,47.32
2019-04-03T09:57:36.582Z,47.32
2019-04-03T10:00:10.604Z,47.38
2019-04-03T10:02:38.196Z,47.43
2019-04-03T10:05:06.768Z,47.50
2019-04-03T10:07:36.306Z,47.54
2019-04-03T10:10:07.120Z,47.59
2019-04-03T10:12:35.228Z,47.63
2019-04-03T10:15:04.317Z,47.68
2019-04-03T10:17:32.322Z,47.71
2019-04-03T10:20:00.996Z,47.70
2019-04-03T10:22:29.426Z,47.71
2019-04-03T10:25:00.079Z,47.70
2019-04-03T10:27:28.147Z,47.69
2019-04-03T10:29:56.617Z,47.74
2019-04-03T10:32:27.225Z,47.72
2019-04-03T10:34:57.409Z,47.76
2019-04-03T10:37:24.916Z,47.74
2019-04-03T10:39:53.542Z,47.73
2019-04-03T10:42:21.859Z,47.68
2019-04-03T10:44:50.197Z,47.65
2019-04-03T10:47:20.793Z,47.64
2019-04-03T10:49:48.333Z,47.60
2019-04-03T10:52:16.359Z,47.59
2019-04-03T10:54:44.653Z,47.54
2019-04-03T10:57:12.832Z,47.55
2019-04-03T10:59:40.894Z,47.55
2019-04-03T11:02:09.401Z,47.58
2019-04-03T11:04:37.491Z,47.64
2019-04-03T11:07:05.827Z,47.66
2019-04-03T11:09:33.922Z,47.71
2019-04-03T11:12:01.916Z,47.73
2019-04-03T11:14:29.956Z,47.74
2019-04-03T11:16:58.166Z,47.73
2019-04-03T11:19:26.454Z,47.73
2019-04-03T11:21:56.788Z,47.74
2019-04-03T11:24:24.834Z,47.73
2019-04-03T11:26:53.196Z,47.75
2019-04-03T11:29:21.715Z,47.77
2019-04-03T11:31:49.707Z,47.76
2019-04-03T11:34:18.526Z,47.78
2019-04-03T11:36:47.207Z,47.80
2019-04-03T11:39:16.252Z,47.82
2019-04-03T11:41:45.976Z,47.85
2019-04-03T11:44:13.990Z,47.85
2019-04-03T11:46:42.385Z,47.83
2019-04-03T11:49:11.709Z,47.83
2019-04-03T11:51:39.639Z,47.88
2019-04-03T11:54:09.203Z,47.91
2019-04-03T11:56:37.396Z,48.00
2019-04-03T11:59:05.466Z,48.03
2019-04-03T12:01:33.573Z,48.09
2019-04-03T12:04:01.694Z,48.12
2019-04-03T12:06:29.757Z,48.12
2019-04-03T12:09:00.923Z,48.21
2019-04-03T12:11:28.704Z,48.19
2019-04-03T12:13:57.232Z,48.20
2019-04-03T12:16:26.216Z,48.25
2019-04-03T12:18:54.983Z,48.27
2019-04-03T12:21:23.193Z,48.33
2019-04-03T12:23:51.210Z,48.43
2019-04-03T12:26:20.880Z,48.52
2019-04-03T12:28:50.178Z,48.59
2019-04-03T12:31:18.612Z,48.65
2019-04-03T12:33:53.169Z,48.74
2019-04-03T12:36:16.532Z,48.81
2019-04-03T12:38:44.548Z,48.87
2019-04-03T12:41:12.539Z,48.93
2019-04-03T12:43:40.816Z,48.96
2019-04-03T12:46:08.977Z,49.00
2019-04-03T12:48:36.989Z,48.97
2019-04-03T12:51:05.446Z,48.97
2019-04-03T12:53:33.541Z,48.99
2019-04-03T12:56:01.946Z,49.03
2019-04-03T12:58:30.103Z,49.01
2019-04-03T13:00:58.180Z,48.98
2019-04-03T13:03:26.229Z,48.96
2019-04-03T13:05:55.962Z,48.86
2019-04-03T13:08:24.062Z,48.85
2019-04-03T13:10:52.359Z,48.83
2019-04-03T13:13:20.510Z,48.80
2019-04-03T13:15:48.592Z,48.80
2019-04-03T13:18:16.756Z,48.81
2019-04-03T13:20:44.806Z,48.78
2019-04-03T13:23:14.356Z,48.74
2019-04-03T13:25:43.235Z,48.74
2019-04-03T13:28:11.477Z,48.73
2019-04-03T13:30:43.150Z,48.74
2019-04-03T13:33:10.504Z,48.73
2019-04-03T13:35:38.760Z,48.75
2019-04-03T13:38:08.448Z,48.84
2019-04-03T13:40:38.422Z,48.87
2019-04-03T13:43:06.537Z,48.89
2019-04-03T13:45:34.600Z,48.83
2019-04-03T13:48:02.567Z,48.83
2019-04-03T13:50:30.617Z,48.84
2019-04-03T13:52:58.625Z,48.88
2019-04-03T13:55:28.860Z,48.89
2019-04-03T13:57:56.848Z,48.90
2019-04-03T14:00:25.463Z,48.95
2019-04-03T14:02:56.388Z,48.99
2019-04-03T14:05:26.627Z,49.02
2019-04-03T14:07:54.925Z,49.08
2019-04-03T14:10:26.477Z,49.15
2019-04-03T14:12:54.347Z,49.21
2019-04-03T14:15:22.458Z,49.24
2019-04-03T14:17:56.390Z,49.29
2019-04-03T14:20:22.927Z,49.36
2019-04-03T14:22:50.729Z,49.40
2019-04-03T14:25:22.305Z,49.44
2019-04-03T14:27:48.872Z,49.51
2019-04-03T14:30:17.735Z,49.63
2019-04-03T14:32:45.921Z,49.72
2019-04-03T14:35:44.580Z,49.78
2019-04-03T14:37:44.498Z,49.83
2019-04-03T14:40:13.475Z,49.93
2019-04-03T14:42:42.097Z,50.05
2019-04-03T14:45:13.359Z,50.17
2019-04-03T14:47:40.729Z,50.23
2019-04-03T14:50:10.638Z,50.30
2019-04-03T14:52:38.708Z,50.32
2019-04-03T14:55:23.407Z,50.36
2019-04-03T14:57:37.185Z,50.42
2019-04-03T15:00:23.510Z,50.47
2019-04-03T15:02:36.405Z,50.51
2019-04-03T15:05:07.361Z,50.55
2019-04-03T15:07:36.416Z,50.58
2019-04-03T15:10:06.261Z,50.62
2019-04-03T15:12:36.120Z,50.69
2019-04-03T15:15:05.777Z,50.73
2019-04-03T15:17:36.131Z,50.74
2019-04-03T15:20:08.700Z,50.77
2019-04-03T15:22:37.141Z,50.85
2019-04-03T15:25:05.274Z,50.87
2019-04-03T15:27:33.658Z,50.90
2019-04-03T15:30:02.741Z,50.96
2019-04-03T15:32:31.173Z,51.02
2019-04-03T15:34:59.768Z,51.08
2019-04-03T15:37:30.843Z,51.11
2019-04-03T15:40:20.298Z,51.14
2019-04-03T15:42:59.274Z,51.18
2019-04-03T15:45:31.184Z,51.24
2019-04-03T15:47:59.320Z,51.32
2019-04-03T15:50:28.564Z,51.37
2019-04-03T15:52:58.086Z,51.37
2019-04-03T15:55:27.280Z,51.42
2019-04-03T15:57:55.695Z,51.46
2019-04-03T16:00:28.400Z,51.49
2019-04-03T16:02:56.878Z,51.52
2019-04-03T16:05:25.444Z,51.54
2019-04-03T16:07:53.669Z,51.57
2019-04-03T16:10:23.241Z,51.63
2019-04-03T16:12:52.006Z,51.65
2019-04-03T16:15:22.437Z,51.70
2019-04-03T16:17:50.205Z,51.75
2019-04-03T16:20:18.369Z,51.82
2019-04-03T16:22:46.413Z,51.87
2019-04-03T16:25:16.761Z,51.89
2019-04-03T16:27:44.612Z,51.89
2019-04-03T16:30:15.800Z,51.85
2019-04-03T16:32:44.712Z,51.84
2019-04-03T16:35:14.497Z,51.83
2019-04-03T16:37:42.869Z,51.84
2019-04-03T16:40:12.626Z,51.90
2019-04-03T16:42:40.707Z,51.99
2019-04-03T16:45:10.589Z,52.00
2019-04-03T16:47:39.082Z,52.06
2019-04-03T16:50:10.103Z,52.06
2019-04-03T16:52:38.701Z,52.08
2019-04-03T16:55:07.237Z,52.09
2019-04-03T16:57:35.665Z,52.10
2019-04-03T17:00:07.618Z,52.12
2019-04-03T17:02:34.941Z,52.12
2019-04-03T17:05:03.703Z,52.13
2019-04-03T17:07:31.717Z,52.17
2019-04-03T17:09:59.698Z,52.21
2019-04-03T17:12:27.722Z,52.27
2019-04-03T17:14:56.478Z,52.31
2019-04-03T17:17:25.057Z,52.36
2019-04-03T17:19:53.147Z,52.36
2019-04-03T17:22:21.220Z,52.38
2019-04-03T17:24:53.517Z,52.36
2019-04-03T17:27:19.869Z,52.37
2019-04-03T17:29:48.371Z,52.36
2019-04-03T17:32:16.400Z,52.39
2019-04-03T17:34:44.389Z,52.43
2019-04-03T17:37:14.586Z,52.48
2019-04-03T17:39:42.595Z,52.52
2019-04-03T17:42:13.054Z,52.49
2019-04-03T17:44:41.106Z,52.50
2019-04-03T17:47:09.639Z,52.52
2019-04-03T17:49:37.820Z,52.58
2019-04-03T17:52:06.060Z,52.70
2019-04-03T17:54:34.203Z,52.74
2019-04-03T17:57:03.470Z,52.78
2019-04-03T17:59:31.681Z,52.77
2019-04-03T18:01:59.962Z,52.78
2019-04-03T18:04:28.052Z,52.77
2019-04-03T18:06:58.056Z,52.78
2019-04-03T18:09:26.522Z,52.83
2019-04-03T18:11:57.953Z,52.88
2019-04-03T18:14:36.148Z,52.94
2019-04-03T18:17:04.941Z,52.91
2019-04-03T18:19:37.765Z,52.89
2019-04-03T18:22:03.339Z,52.91
2019-04-03T18:24:33.104Z,52.95
2019-04-03T18:27:02.563Z,52.95
2019-04-03T18:29:32.824Z,52.95
2019-04-03T18:32:01.954Z,52.98
2019-04-03T18:34:30.011Z,52.99
2019-04-03T18:36:58.192Z,53.03
2019-04-03T18:39:26.492Z,53.04
2019-04-03T18:42:04.602Z,53.04
2019-04-03T18:44:33.176Z,53.09
2019-04-03T18:47:01.492Z,53.10
2019-04-03T18:49:30.627Z,53.12
2019-04-03T18:52:01.543Z,53.13
2019-04-03T18:54:29.740Z,53.14
2019-04-03T18:56:57.920Z,53.17
2019-04-03T18:59:26.477Z,53.18
2019-04-03T19:02:03.834Z,53.20
2019-04-03T19:04:37.417Z,53.22
2019-04-03T19:07:04.851Z,53.22
2019-04-03T19:09:41.893Z,53.28
2019-04-03T19:12:12.820Z,53.32
2019-04-03T19:14:42.704Z,53.38
2019-04-03T19:17:10.863Z,53.40
2019-04-03T19:19:38.874Z,53.41
2019-04-03T19:22:08.726Z,53.45
2019-04-03T19:24:38.055Z,53.48
2019-04-03T19:27:06.277Z,53.44
2019-04-03T19:29:35.765Z,53.46
2019-04-03T19:32:04.652Z,53.47
2019-04-03T19:34:32.922Z,53.51
2019-04-03T19:37:08.813Z,53.52
2019-04-03T19:39:37.701Z,53.52
2019-04-03T19:42:06.605Z,53.55
2019-04-03T19:44:34.959Z,53.59
2019-04-03T19:47:03.579Z,53.59
2019-04-03T19:49:32.070Z,53.63
2019-04-03T19:52:01.651Z,53.63
2019-04-03T19:54:29.848Z,53.64
2019-04-03T19:57:00.755Z,53.68
2019-04-03T19:59:30.993Z,53.67
2019-04-03T20:02:00.170Z,53.68
2019-04-03T20:04:33.895Z,53.71
2019-04-03T20:07:07.625Z,53.72
2019-04-03T20:09:39.451Z,53.71
2019-04-03T20:12:07.693Z,53.76
2019-04-03T20:14:37.379Z,53.77
2019-04-03T20:17:06.063Z,53.80
2019-04-03T20:19:35.637Z,53.80
2019-04-03T20:22:06.730Z,53.84
2019-04-03T20:24:33.680Z,53.86
2019-04-03T20:27:02.684Z,53.85
2019-04-03T20:29:31.840Z,53.88
2019-04-03T20:32:00.238Z,53.90
2019-04-03T20:34:28.674Z,53.89
2019-04-03T20:36:57.096Z,53.89
2019-04-03T20:39:25.129Z,53.89
2019-04-03T20:41:53.434Z,53.92
2019-04-03T20:44:21.443Z,53.94
2019-04-03T20:46:49.435Z,53.98
2019-04-03T20:49:17.515Z,53.98
2019-04-03T20:51:48.487Z,54.00
2019-04-03T20:54:15.895Z,53.99
2019-04-03T20:56:43.833Z,53.99
2019-04-03T20:59:12.210Z,54.02
2019-04-03T21:01:40.759Z,54.03
2019-04-03T21:04:09.117Z,54.05
2019-04-03T21:06:37.620Z,54.07
2019-04-03T21:09:09.307Z,54.11
2019-04-03T21:11:38.529Z,54.13
2019-04-03T21:14:06.765Z,54.12
2019-04-03T21:16:35.900Z,54.16
2019-04-03T21:19:03.956Z,54.18
2019-04-03T21:21:31.983Z,54.19
2019-04-03T21:24:00.011Z,54.20
2019-04-03T21:26:28.024Z,54.20
2019-04-03T21:28:56.337Z,54.19
2019-04-03T21:31:26.009Z,54.23
2019-04-03T21:33:54.300Z,54.24
2019-04-03T21:36:23.012Z,54.25
2019-04-03T21:38:51.247Z,54.30
2019-04-03T21:41:20.678Z,54.30
2019-04-03T21:43:49.391Z,54.33
2019-04-03T21:46:17.609Z,54.34
2019-04-03T21:48:45.587Z,54.36
2019-04-03T21:51:14.144Z,54.39
2019-04-03T21:53:42.162Z,54.39
2019-04-03T21:56:10.194Z,54.43
2019-04-03T21:58:39.714Z,54.42
2019-04-03T22:01:22.790Z,54.45
2019-04-03T22:03:51.698Z,54.46
2019-04-03T22:06:19.937Z,54.46
2019-04-03T22:08:47.980Z,54.52
2019-04-03T22:11:16.119Z,54.54
2019-04-03T22:13:44.924Z,54.52
2019-04-03T22:16:14.293Z,54.54
2019-04-03T22:18:42.302Z,54.55
2019-04-03T22:21:10.363Z,54.58
2019-04-03T22:23:38.386Z,54.56
2019-04-03T22:26:09.567Z,54.62
2019-04-03T22:28:36.365Z,54.64
2019-04-03T22:31:04.611Z,54.64
2019-04-03T22:33:32.627Z,54.64
2019-04-03T22:36:03.258Z,54.65
2019-04-03T22:38:31.677Z,54.63
2019-04-03T22:41:00.832Z,54.66
2019-04-03T22:43:28.826Z,54.69
2019-04-03T22:45:56.852Z,54.69
2019-04-03T22:48:26.753Z,54.70
2019-04-03T22:50:54.737Z,54.71
2019-04-03T22:53:22.727Z,54.75
2019-04-03T22:55:50.775Z,54.77
2019-04-03T22:58:19.032Z,54.79
2019-04-03T23:00:48.744Z,54.81
2019-04-03T23:03:16.843Z,54.83
2019-04-03T23:05:47.685Z,54.86
2019-04-03T23:08:16.236Z,54.89
2019-04-03T23:10:44.286Z,54.87
2019-04-03T23:13:12.294Z,54.90
2019-04-03T23:15:40.328Z,54.93
2019-04-03T23:18:08.362Z,54.95
2019-04-03T23:20:36.390Z,54.97
2019-04-03T23:23:04.364Z,54.94
2019-04-03T23:25:32.787Z,54.94
2019-04-03T23:28:03.140Z,54.96
2019-04-03T23:30:31.119Z,54.94
2019-04-03T23:32:59.140Z,54.92
2019-04-03T23:35:27.119Z,54.93
2019-04-03T23:37:55.791Z,54.95
2019-04-03T23:40:24.353Z,54.93
2019-04-03T23:42:52.383Z,54.95
2019-04-03T23:45:21.262Z,54.97
2019-04-03T23:47:49.312Z,54.98
2019-04-03T23:50:17.564Z,55.01
2019-04-03T23:52:46.674Z,55.04
2019-04-03T23:55:14.924Z,55.09
2019-04-03T23:57:42.969Z,55.10
